createdAt,value
2018-06-04T00:00:36.557Z,59.80
2018-06-04T00:03:06.405Z,55.37
2018-06-04T00:05:36.205Z,56.83
2018-06-04T00:08:06.271Z,53.07
2018-06-04T00:10:35.963Z,50.47
2018-06-04T00:13:05.910Z,54.10
2018-06-04T00:15:35.751Z,56.40
2018-06-04T00:18:05.721Z,55.23
2018-06-04T00:20:35.745Z,56.43
2018-06-04T00:23:05.555Z,54.67
2018-06-04T00:25:35.384Z,51.70
2018-06-04T00:28:05.139Z,52.70
2018-06-04T00:30:35.121Z,59.87
2018-06-04T00:33:04.727Z,64.53
2018-06-04T00:35:34.575Z,65.77
2018-06-04T00:38:04.253Z,66.47
2018-06-04T00:40:34.074Z,75.27
2018-06-04T00:43:03.619Z,74.57
2018-06-04T00:45:33.497Z,76.23
2018-06-04T00:48:03.334Z,72.20
2018-06-04T00:50:34.336Z,76.73
2018-06-04T00:53:03.977Z,88.13
2018-06-04T00:55:39.379Z,96.20
2018-06-04T00:58:09.350Z,118.67
2018-06-04T01:00:39.027Z,109.10
2018-06-04T01:03:09.089Z,115.40
2018-06-04T01:05:38.761Z,104.63
2018-06-04T01:08:08.725Z,105.33
2018-06-04T01:10:38.782Z,114.17
2018-06-04T01:13:08.743Z,119.67
2018-06-04T01:15:38.953Z,111.03
2018-06-04T01:18:08.736Z,105.53
2018-06-04T01:20:38.764Z,114.07
2018-06-04T01:23:08.856Z,131.07
2018-06-04T01:25:38.968Z,137.47
2018-06-04T01:28:08.795Z,141.80
2018-06-04T01:30:38.486Z,158.80
2018-06-04T01:33:08.381Z,160.27
2018-06-04T01:35:38.429Z,166.97
2018-06-04T01:38:08.253Z,170.33
2018-06-04T01:40:38.214Z,176.03
2018-06-04T01:43:08.006Z,173.90
2018-06-04T01:45:38.643Z,204.53
2018-06-04T01:48:08.875Z,236.80
2018-06-04T01:50:39.776Z,255.47
2018-06-04T01:53:09.574Z,259.17
2018-06-04T01:55:39.384Z,454.03
2018-06-04T01:58:08.889Z,400.73
2018-06-04T02:00:39.099Z,534.27
2018-06-04T02:03:09.301Z,562.93
2018-06-04T02:05:40.239Z,528.93
2018-06-04T02:08:09.971Z,501.73
2018-06-04T02:10:39.862Z,463.73
2018-06-04T02:13:09.776Z,435.47
2018-06-04T02:15:39.493Z,386.40
2018-06-04T02:18:09.369Z,378.70
2018-06-04T02:20:39.448Z,359.23
2018-06-04T02:23:09.359Z,292.80
2018-06-04T02:25:39.239Z,364.43
2018-06-04T02:28:09.198Z,503.17
2018-06-04T02:30:38.994Z,431.47
2018-06-04T02:33:08.503Z,576.37
2018-06-04T02:35:38.353Z,500.50
2018-06-04T02:38:08.222Z,548.40
2018-06-04T02:40:37.862Z,439.20
2018-06-04T02:43:07.797Z,334.47
2018-06-04T02:45:38.076Z,356.43
2018-06-04T02:48:08.115Z,449.87
2018-06-04T02:50:37.926Z,494.50
2018-06-04T02:53:08.828Z,646.00
2018-06-04T02:55:38.832Z,706.53
2018-06-04T02:58:08.550Z,795.83
2018-06-04T03:00:38.533Z,914.93
2018-06-04T03:03:08.480Z,857.07
2018-06-04T03:05:38.407Z,696.63
2018-06-04T03:08:08.275Z,633.63
2018-06-04T03:10:38.137Z,710.73
2018-06-04T03:13:07.873Z,714.27
2018-06-04T03:15:37.639Z,683.27
2018-06-04T03:18:07.866Z,570.27
2018-06-04T03:20:37.946Z,513.33
2018-06-04T03:23:07.886Z,686.60
2018-06-04T03:25:37.737Z,780.57
2018-06-04T03:28:07.479Z,603.60
2018-06-04T03:30:37.391Z,531.70
2018-06-04T03:33:07.199Z,517.03
2018-06-04T03:35:37.061Z,563.07
2018-06-04T03:38:06.871Z,612.63
2018-06-04T03:40:36.786Z,588.03
2018-06-04T03:43:06.583Z,532.70
2018-06-04T03:45:36.344Z,530.40
2018-06-04T03:48:06.321Z,604.97
2018-06-04T03:50:36.318Z,501.23
2018-06-04T03:53:06.198Z,429.90
2018-06-04T03:55:36.959Z,446.40
2018-06-04T03:58:06.895Z,231.90
2018-06-04T04:00:36.788Z,214.73
2018-06-04T04:03:06.784Z,248.47
2018-06-04T04:05:36.613Z,191.93
2018-06-04T04:08:07.361Z,207.13
2018-06-04T04:10:37.263Z,147.57
2018-06-04T04:13:07.461Z,125.33
2018-06-04T04:15:37.461Z,128.20
2018-06-04T04:18:07.184Z,90.70
2018-06-04T04:20:41.142Z,116.10
2018-06-04T04:23:10.943Z,104.23
2018-06-04T04:25:40.614Z,76.53
2018-06-04T04:28:11.411Z,69.13
2018-06-04T04:30:41.150Z,55.40
2018-06-04T04:33:10.861Z,55.00
2018-06-04T04:35:40.789Z,52.80
2018-06-04T04:38:10.752Z,51.53
2018-06-04T04:40:40.434Z,58.53
2018-06-04T04:43:10.395Z,54.83
2018-06-04T04:45:40.066Z,53.83
2018-06-04T04:48:10.108Z,52.00
2018-06-04T04:50:40.020Z,54.30
2018-06-04T04:53:09.607Z,49.83
2018-06-04T04:55:40.326Z,48.07
2018-06-04T04:58:10.032Z,50.60
2018-06-04T05:00:39.811Z,47.20
2018-06-04T05:03:09.796Z,48.47
2018-06-04T05:05:39.599Z,47.47
2018-06-04T05:08:09.799Z,48.70
2018-06-04T05:10:39.578Z,44.73
2018-06-04T05:13:09.376Z,44.27
2018-06-04T05:15:39.066Z,45.50
2018-06-04T05:18:09.057Z,47.43
2018-06-04T05:20:39.848Z,45.13
2018-06-04T05:23:09.838Z,45.73
2018-06-04T05:25:39.823Z,46.50
2018-06-04T05:28:09.742Z,40.10
2018-06-04T05:30:39.812Z,40.20
2018-06-04T05:33:09.621Z,37.97
2018-06-04T05:35:39.468Z,35.67
2018-06-04T05:38:09.403Z,35.90
2018-06-04T05:40:39.083Z,35.73
2018-06-04T05:43:08.868Z,32.30
2018-06-04T05:45:38.644Z,34.03
2018-06-04T05:48:08.579Z,32.20
2018-06-04T05:50:38.369Z,30.53
2018-06-04T05:53:08.062Z,31.37
2018-06-04T05:55:37.890Z,29.70
2018-06-04T05:58:08.561Z,30.77
2018-06-04T06:00:38.231Z,31.73
2018-06-04T06:03:07.920Z,29.40
2018-06-04T06:05:37.584Z,27.53
2018-06-04T06:08:07.505Z,28.60
2018-06-04T06:10:37.427Z,28.53
2018-06-04T06:13:07.245Z,28.53
2018-06-04T06:15:37.061Z,27.07
2018-06-04T06:18:06.796Z,28.50
2018-06-04T06:20:36.598Z,29.03
2018-06-04T06:23:06.318Z,31.80
2018-06-04T06:25:36.119Z,30.87
2018-06-04T06:28:06.092Z,31.20
2018-06-04T06:30:35.782Z,29.53
2018-06-04T06:33:05.683Z,28.83
2018-06-04T06:35:35.686Z,28.33
2018-06-04T06:38:05.755Z,32.67
2018-06-04T06:40:35.517Z,57.70
2018-06-04T06:43:05.341Z,28.57
2018-06-04T06:45:35.329Z,33.77
2018-06-04T06:48:05.165Z,31.93
2018-06-04T06:50:35.290Z,28.87
2018-06-04T06:53:05.200Z,33.37
2018-06-04T06:55:34.850Z,38.33
2018-06-04T06:58:04.931Z,38.70
2018-06-04T07:00:35.329Z,27.07
2018-06-04T07:03:05.362Z,27.83
2018-06-04T07:05:35.125Z,29.60
2018-06-04T07:08:04.912Z,34.23
2018-06-04T07:10:34.762Z,32.77
2018-06-04T07:13:04.660Z,32.07
2018-06-04T07:15:34.595Z,32.50
2018-06-04T07:18:04.460Z,33.93
2018-06-04T07:20:34.301Z,32.80
2018-06-04T07:23:04.160Z,29.97
2018-06-04T07:25:34.162Z,31.97
2018-06-04T07:28:03.839Z,32.67
2018-06-04T07:30:33.708Z,30.93
2018-06-04T07:33:03.877Z,31.33
2018-06-04T07:35:34.026Z,30.77
2018-06-04T07:38:03.888Z,29.00
2018-06-04T07:40:34.239Z,31.27
2018-06-04T07:43:03.938Z,29.10
2018-06-04T07:45:33.767Z,27.50
2018-06-04T07:48:03.716Z,28.00
2018-06-04T07:50:33.846Z,26.75
2018-06-04T07:53:03.510Z,27.00
2018-06-04T07:55:33.181Z,28.10
2018-06-04T07:58:02.895Z,27.07
2018-06-04T08:00:32.866Z,27.70
2018-06-04T08:03:02.843Z,24.53
2018-06-04T08:05:32.505Z,23.70
2018-06-04T08:08:02.104Z,22.53
2018-06-04T08:10:32.208Z,23.43
2018-06-04T08:13:01.960Z,23.40
2018-06-04T08:15:31.810Z,23.70
2018-06-04T08:18:01.716Z,22.97
2018-06-04T08:20:31.720Z,21.50
2018-06-04T08:23:01.572Z,23.27
2018-06-04T08:25:31.371Z,24.30
2018-06-04T08:28:01.048Z,22.47
2018-06-04T08:30:31.936Z,22.03
2018-06-04T08:33:01.998Z,21.90
2018-06-04T08:35:32.037Z,21.43
2018-06-04T08:38:01.793Z,21.87
2018-06-04T08:40:31.981Z,21.00
2018-06-04T08:43:02.289Z,22.10
2018-06-04T08:45:32.178Z,19.73
2018-06-04T08:48:02.110Z,19.10
2018-06-04T08:50:31.858Z,19.47
2018-06-04T08:53:01.504Z,21.93
2018-06-04T08:55:31.221Z,18.80
2018-06-04T08:58:00.786Z,19.83
2018-06-04T09:00:30.861Z,17.90
2018-06-04T09:03:00.706Z,19.57
2018-06-04T09:05:30.784Z,18.93
2018-06-04T09:08:00.499Z,19.07
2018-06-04T09:10:30.217Z,21.37
2018-06-04T09:13:00.092Z,20.17
2018-06-04T09:15:30.159Z,17.83
2018-06-04T09:17:59.841Z,18.00
2018-06-04T09:20:29.914Z,19.50
2018-06-04T09:23:00.962Z,19.03
2018-06-04T09:25:30.794Z,19.43
2018-06-04T09:28:00.498Z,19.20
2018-06-04T09:30:30.321Z,18.37
2018-06-04T09:33:00.073Z,16.77
2018-06-04T09:35:30.038Z,19.17
2018-06-04T09:37:59.986Z,18.07
2018-06-04T09:40:29.804Z,16.63
2018-06-04T09:42:59.661Z,16.83
2018-06-04T09:45:29.601Z,19.67
2018-06-04T09:47:59.468Z,15.90
2018-06-04T09:50:30.425Z,16.03
2018-06-04T09:53:00.049Z,18.53
2018-06-04T09:55:29.829Z,15.47
2018-06-04T09:58:00.085Z,14.43
2018-06-04T10:00:39.191Z,13.53
2018-06-04T10:03:09.151Z,12.53
2018-06-04T10:05:39.938Z,13.10
2018-06-04T10:08:10.011Z,13.37
2018-06-04T10:10:40.028Z,13.53
2018-06-04T10:13:09.738Z,14.10
2018-06-04T10:15:40.137Z,14.43
2018-06-04T10:18:10.205Z,12.23
2018-06-04T10:20:39.829Z,13.60
2018-06-04T10:23:09.827Z,11.77
2018-06-04T10:25:39.661Z,11.90
2018-06-04T10:28:09.575Z,12.43
2018-06-04T10:30:39.615Z,14.20
2018-06-04T10:33:09.469Z,12.00
2018-06-04T10:35:39.167Z,11.67
2018-06-04T10:38:09.132Z,10.60
2018-06-04T10:40:38.923Z,12.50
2018-06-04T10:43:08.589Z,12.80
2018-06-04T10:45:38.601Z,11.27
2018-06-04T10:48:08.642Z,13.00
2018-06-04T10:50:38.602Z,11.40
2018-06-04T10:53:08.417Z,12.53
2018-06-04T10:55:38.463Z,11.33
2018-06-04T10:58:08.233Z,11.37
2018-06-04T11:00:38.042Z,11.17
2018-06-04T11:03:07.900Z,11.60
2018-06-04T11:05:37.601Z,13.47
2018-06-04T11:08:07.539Z,11.87
2018-06-04T11:10:37.408Z,11.63
2018-06-04T11:13:07.129Z,12.27
2018-06-04T11:15:36.999Z,11.13
2018-06-04T11:18:06.838Z,9.00
2018-06-04T11:20:36.689Z,8.40
2018-06-04T11:23:06.565Z,10.23
2018-06-04T11:25:36.342Z,23.27
2018-06-04T11:28:06.015Z,8.03
2018-06-04T11:30:35.907Z,9.73
2018-06-04T11:33:06.648Z,9.55
2018-06-04T11:35:36.545Z,7.78
2018-06-04T11:38:06.449Z,9.13
2018-06-04T11:40:36.082Z,9.15
2018-06-04T11:43:05.920Z,9.48
2018-06-04T11:45:35.805Z,9.10
2018-06-04T11:48:05.908Z,8.48
2018-06-04T11:50:35.872Z,9.13
2018-06-04T11:53:05.804Z,8.73
2018-06-04T11:55:35.952Z,7.80
2018-06-04T11:58:06.026Z,8.75
2018-06-04T12:00:35.882Z,9.78
2018-06-04T12:03:05.906Z,7.50
2018-06-04T12:05:35.581Z,8.68
2018-06-04T12:08:05.316Z,7.83
2018-06-04T12:53:00.196Z,7.58
2018-06-04T12:55:30.002Z,7.05
2018-06-04T12:58:01.057Z,7.40
2018-06-04T13:00:30.948Z,8.08
2018-06-04T13:03:00.732Z,6.55
2018-06-04T13:05:30.737Z,8.13
2018-06-04T13:08:00.316Z,6.83
2018-06-04T13:10:30.039Z,7.33
2018-06-04T13:13:00.310Z,6.50
2018-06-04T13:15:30.125Z,6.60
2018-06-04T13:18:00.058Z,8.80
2018-06-04T13:20:29.880Z,7.03
2018-06-04T13:22:59.756Z,6.85
2018-06-04T13:25:29.750Z,8.18
2018-06-04T13:27:59.567Z,7.42
2018-06-04T13:30:29.393Z,6.92
2018-06-04T13:32:59.058Z,7.10
2018-06-04T13:35:28.700Z,7.42
2018-06-04T13:37:58.739Z,7.28
2018-06-04T13:40:28.608Z,8.43
2018-06-04T13:42:58.785Z,6.85
2018-06-04T13:45:28.585Z,6.92
2018-06-04T13:47:58.374Z,8.98
2018-06-04T13:50:28.486Z,8.53
2018-06-04T13:52:58.343Z,7.42
2018-06-04T13:55:28.826Z,6.72
2018-06-04T13:57:58.834Z,7.15
2018-06-04T14:00:28.764Z,6.90
2018-06-04T14:02:59.679Z,6.65
2018-06-04T14:05:29.489Z,7.15
2018-06-04T14:07:59.220Z,6.53
2018-06-04T14:10:29.178Z,6.95
2018-06-04T14:12:59.152Z,6.65
2018-06-04T14:15:29.033Z,6.95
2018-06-04T14:17:58.883Z,6.75
2018-06-04T14:20:28.656Z,7.00
2018-06-04T14:22:58.418Z,6.15
2018-06-04T14:25:28.245Z,6.50
2018-06-04T14:27:58.084Z,6.50
2018-06-04T14:30:27.711Z,6.33
2018-06-04T14:32:57.518Z,8.93
2018-06-04T14:35:27.516Z,6.90
2018-06-04T14:37:57.250Z,6.12
2018-06-04T14:40:27.459Z,6.80
2018-06-04T14:42:57.427Z,38.48
2018-06-04T14:45:27.480Z,90.22
2018-06-04T14:47:57.364Z,8.73
2018-06-04T14:50:27.180Z,7.17
2018-06-04T14:52:57.037Z,5.80
2018-06-04T14:55:27.203Z,5.58
2018-06-04T14:57:57.312Z,5.90
2018-06-04T15:00:27.509Z,6.12
2018-06-04T15:02:57.268Z,5.80
2018-06-04T15:05:27.208Z,8.08
2018-06-04T15:07:57.473Z,5.92
2018-06-04T15:10:27.539Z,7.72
2018-06-04T15:12:57.543Z,6.37
2018-06-04T15:15:27.514Z,5.70
2018-06-04T15:17:58.354Z,6.62
2018-06-04T15:20:28.155Z,5.60
2018-06-04T15:22:57.982Z,6.50
2018-06-04T15:25:27.626Z,5.37
2018-06-04T15:27:58.585Z,5.80
2018-06-04T15:30:28.356Z,5.42
2018-06-04T15:32:58.276Z,5.78
2018-06-04T15:35:28.026Z,5.40
2018-06-04T15:37:57.999Z,5.75
2018-06-04T15:40:28.552Z,8.53
2018-06-04T15:42:58.640Z,5.17
2018-06-04T15:45:31.632Z,6.97
2018-06-04T15:48:01.406Z,5.15
2018-06-04T15:50:31.385Z,5.03
2018-06-04T15:53:01.287Z,5.25
2018-06-04T15:55:32.219Z,6.08
2018-06-04T15:58:02.220Z,5.35
2018-06-04T16:00:31.805Z,7.67
2018-06-04T16:03:01.573Z,4.72
2018-06-04T16:05:31.548Z,11.80
2018-06-04T16:08:01.401Z,4.53
2018-06-04T16:10:31.353Z,5.33
2018-06-04T16:13:01.320Z,4.03
2018-06-04T16:15:31.161Z,4.22
2018-06-04T16:18:01.162Z,4.35
2018-06-04T16:20:31.115Z,6.20
2018-06-04T16:23:01.324Z,8.73
2018-06-04T16:25:31.077Z,4.08
2018-06-04T16:28:01.013Z,4.37
2018-06-04T16:30:30.989Z,4.12
2018-06-04T16:33:00.817Z,6.03
2018-06-04T16:35:30.864Z,6.05
2018-06-04T16:38:01.804Z,5.30
2018-06-04T16:40:32.132Z,4.25
2018-06-04T16:43:03.193Z,4.53
2018-06-04T16:45:33.405Z,4.40
2018-06-04T16:48:04.263Z,6.00
2018-06-04T16:50:34.350Z,4.92
2018-06-04T16:53:04.216Z,4.28
2018-06-04T16:55:36.199Z,6.65
2018-06-04T16:58:07.380Z,4.40
2018-06-04T17:00:37.231Z,4.78
2018-06-04T17:03:07.357Z,4.60
2018-06-04T17:05:37.233Z,5.22
2018-06-04T17:08:07.325Z,5.85
2018-06-04T17:10:37.122Z,5.00
2018-06-04T17:13:06.857Z,5.05
2018-06-04T17:15:36.835Z,4.70
2018-06-04T17:18:06.703Z,7.40
2018-06-04T17:20:36.526Z,4.92
2018-06-04T17:23:06.263Z,5.30
2018-06-04T17:25:35.950Z,8.20
2018-06-04T17:28:06.050Z,6.65
2018-06-04T17:30:35.769Z,6.12
2018-06-04T17:33:05.589Z,9.55
2018-06-04T17:35:35.553Z,17.73
2018-06-04T17:38:12.115Z,11.63
2018-06-04T17:40:42.583Z,8.78
2018-06-04T17:43:12.550Z,8.53
2018-06-04T17:45:42.520Z,13.55
2018-06-04T17:48:12.373Z,7.35
2018-06-04T17:50:42.213Z,7.67
2018-06-04T17:53:12.129Z,7.93
2018-06-04T17:55:41.924Z,12.40
2018-06-04T17:58:12.370Z,10.33
2018-06-04T18:00:42.370Z,9.40
2018-06-04T18:03:12.287Z,14.70
2018-06-04T18:05:42.089Z,12.07
2018-06-04T18:08:12.143Z,13.03
2018-06-04T18:10:42.103Z,21.17
2018-06-04T18:13:12.128Z,17.63
2018-06-04T18:15:42.248Z,11.43
2018-06-04T18:18:12.255Z,13.60
2018-06-04T18:20:42.257Z,11.50
2018-06-04T18:23:12.221Z,11.43
2018-06-04T18:25:42.119Z,10.50
2018-06-04T18:28:12.102Z,13.10
2018-06-04T18:30:41.939Z,12.37
2018-06-04T18:33:11.736Z,11.07
2018-06-04T18:35:41.697Z,12.70
2018-06-04T18:38:11.582Z,15.40
2018-06-04T18:40:42.212Z,12.77
2018-06-04T18:43:12.202Z,11.63
2018-06-04T18:45:41.925Z,13.57
2018-06-04T18:48:11.959Z,10.77
2018-06-04T18:50:41.748Z,13.57
2018-06-04T18:53:11.463Z,9.57
2018-06-04T18:55:41.524Z,13.13
2018-06-04T18:58:11.111Z,16.50
2018-06-04T19:00:41.251Z,12.70
2018-06-04T19:03:11.371Z,17.37
2018-06-04T19:05:41.441Z,20.67
2018-06-04T19:08:11.534Z,16.60
2018-06-04T19:10:41.373Z,16.43
2018-06-04T19:13:11.313Z,16.53
2018-06-04T19:15:41.128Z,13.43
2018-06-04T19:18:11.328Z,11.17
2018-06-04T19:20:41.509Z,12.13
2018-06-04T19:23:11.566Z,17.93
2018-06-04T19:25:41.741Z,16.60
2018-06-04T19:28:11.773Z,17.60
2018-06-04T19:30:41.719Z,20.87
2018-06-04T19:33:11.594Z,20.37
2018-06-04T19:35:41.424Z,24.67
2018-06-04T19:38:11.311Z,21.33
2018-06-04T19:40:41.476Z,23.90
2018-06-04T19:43:11.682Z,22.70
2018-06-04T19:45:41.880Z,29.87
2018-06-04T19:48:12.970Z,26.10
2018-06-04T19:50:42.997Z,24.03
2018-06-04T19:53:13.007Z,28.47
2018-06-04T19:55:42.618Z,22.53
2018-06-04T19:58:12.532Z,22.40
2018-06-04T20:00:42.679Z,29.50
2018-06-04T20:03:12.688Z,27.57
2018-06-04T20:05:42.581Z,24.83
2018-06-04T20:08:12.512Z,22.40
2018-06-04T20:10:42.484Z,20.57
2018-06-04T20:13:12.327Z,20.90
2018-06-04T20:15:43.138Z,21.57
2018-06-04T20:18:12.985Z,21.47
2018-06-04T20:20:42.999Z,23.67
2018-06-04T20:23:13.053Z,27.03
2018-06-04T20:25:42.965Z,23.17
2018-06-04T20:28:14.673Z,23.23
2018-06-04T20:30:44.714Z,24.00
2018-06-04T20:33:14.541Z,25.00
2018-06-04T20:35:44.347Z,21.30
2018-06-04T20:38:14.426Z,22.97
2018-06-04T20:40:44.549Z,21.33
2018-06-04T20:43:15.099Z,22.93
2018-06-04T20:45:45.278Z,22.00
2018-06-04T20:48:15.525Z,32.73
2018-06-04T20:50:45.101Z,37.20
2018-06-04T20:53:15.040Z,45.70
2018-06-04T20:55:44.818Z,27.83
2018-06-04T20:58:14.811Z,37.00
2018-06-04T21:00:45.151Z,35.97
2018-06-04T21:03:16.240Z,25.13
2018-06-04T21:05:46.273Z,25.00
2018-06-04T21:08:16.207Z,27.07
2018-06-04T21:10:46.109Z,24.17
2018-06-04T21:13:15.916Z,23.70
2018-06-04T21:15:46.260Z,23.25
2018-06-04T21:18:17.485Z,21.43
2018-06-04T21:20:47.416Z,20.87
2018-06-04T21:23:16.977Z,21.47
2018-06-04T21:25:47.147Z,22.10
2018-06-04T21:28:18.012Z,22.37
2018-06-04T21:30:48.123Z,24.57
2018-06-04T21:33:17.973Z,23.27
2018-06-04T21:35:48.046Z,25.13
2018-06-04T21:38:18.105Z,22.90
2018-06-04T21:40:48.105Z,22.90
2018-06-04T21:43:17.947Z,21.50
2018-06-04T21:45:47.893Z,21.30
2018-06-04T21:48:17.720Z,21.90
2018-06-04T21:50:47.581Z,22.07
2018-06-04T21:53:17.727Z,22.57
2018-06-04T21:55:47.589Z,21.33
2018-06-04T21:58:17.288Z,21.73
2018-06-04T22:00:47.811Z,24.50
2018-06-04T22:03:17.741Z,27.47
2018-06-04T22:05:47.682Z,24.53
2018-06-04T22:08:17.533Z,25.83
2018-06-04T22:10:47.399Z,26.20
2018-06-04T22:13:17.334Z,25.33
2018-06-04T22:15:47.208Z,25.50
2018-06-04T22:18:17.089Z,25.80
2018-06-04T22:20:47.066Z,27.23
2018-06-04T22:23:17.051Z,27.67
2018-06-04T22:25:47.099Z,28.17
2018-06-04T22:28:17.044Z,28.87
2018-06-04T22:30:48.724Z,28.03
2018-06-04T22:33:18.685Z,29.63
2018-06-04T22:35:48.446Z,28.50
2018-06-04T22:38:18.091Z,28.87
2018-06-04T22:40:47.908Z,28.43
2018-06-04T22:43:17.737Z,33.87
2018-06-04T22:45:47.350Z,27.47
2018-06-04T22:48:17.272Z,28.83
2018-06-04T22:50:47.408Z,30.53
2018-06-04T22:53:17.304Z,27.80
2018-06-04T22:55:47.262Z,26.27
2018-06-04T22:58:17.061Z,25.80
2018-06-04T23:00:46.817Z,30.33
2018-06-04T23:03:17.143Z,27.90
2018-06-04T23:05:46.803Z,26.63
2018-06-04T23:08:16.653Z,30.20
2018-06-04T23:10:46.428Z,31.77
2018-06-04T23:13:16.345Z,30.07
2018-06-04T23:15:46.587Z,35.93
2018-06-04T23:18:23.262Z,31.50
2018-06-04T23:20:53.247Z,37.53
2018-06-04T23:23:23.522Z,37.60
2018-06-04T23:25:53.275Z,40.10
2018-06-04T23:28:23.409Z,43.27
2018-06-04T23:30:57.376Z,46.50
2018-06-04T23:33:27.358Z,38.70
2018-06-04T23:35:57.315Z,38.93
2018-06-04T23:38:27.189Z,40.73
2018-06-04T23:40:57.088Z,37.13
2018-06-04T23:43:27.236Z,36.30
2018-06-04T23:45:56.985Z,40.57
2018-06-04T23:48:27.150Z,38.03
2018-06-04T23:50:56.941Z,43.20
2018-06-04T23:53:26.936Z,39.53
2018-06-04T23:55:56.941Z,43.13
2018-06-04T23:58:26.644Z,43.10
